createdAt,value
2019-01-27T00:00:38.871Z,3.20
2019-01-27T00:03:05.945Z,3.10
2019-01-27T00:05:32.767Z,2.40
2019-01-27T00:07:59.527Z,3.00
2019-01-27T00:10:26.782Z,2.80
2019-01-27T00:12:53.533Z,2.60
2019-01-27T00:15:20.445Z,3.00
2019-01-27T00:17:47.551Z,2.70
2019-01-27T00:20:15.363Z,2.70
2019-01-27T00:22:42.173Z,2.10
2019-01-27T00:25:09.078Z,2.80
2019-01-27T00:27:35.956Z,2.63
2019-01-27T00:30:04.095Z,2.77
2019-01-27T00:32:30.871Z,3.10
2019-01-27T00:34:58.165Z,3.17
2019-01-27T00:37:24.889Z,2.70
2019-01-27T00:39:51.803Z,1.93
2019-01-27T00:42:18.599Z,2.57
2019-01-27T00:44:45.309Z,2.70
2019-01-27T00:47:12.092Z,2.70
2019-01-27T00:49:38.879Z,2.03
2019-01-27T00:52:05.875Z,2.33
2019-01-27T00:54:32.629Z,1.90
2019-01-27T00:56:59.337Z,2.40
2019-01-27T00:59:26.336Z,2.23
2019-01-27T01:01:54.404Z,2.33
2019-01-27T01:04:21.182Z,1.83
2019-01-27T01:06:48.022Z,2.10
2019-01-27T01:09:14.783Z,1.90
2019-01-27T01:11:41.749Z,2.07
2019-01-27T01:14:08.552Z,1.80
2019-01-27T01:16:38.402Z,2.43
2019-01-27T01:19:05.194Z,1.80
2019-01-27T01:21:34.501Z,2.20
2019-01-27T01:24:01.335Z,2.10
2019-01-27T01:26:28.083Z,2.37
2019-01-27T01:28:54.945Z,2.43
2019-01-27T01:31:21.714Z,2.10
2019-01-27T01:33:48.587Z,2.27
2019-01-27T01:36:15.396Z,1.73
2019-01-27T01:38:42.253Z,1.90
2019-01-27T01:41:09.126Z,2.00
2019-01-27T01:43:36.216Z,1.83
2019-01-27T01:46:03.101Z,1.77
2019-01-27T01:48:29.869Z,1.70
2019-01-27T01:50:56.629Z,2.17
2019-01-27T01:53:23.429Z,1.87
2019-01-27T01:55:50.204Z,1.90
2019-01-27T01:58:17.134Z,1.50
2019-01-27T02:00:44.154Z,1.70
2019-01-27T02:03:11.054Z,1.47
2019-01-27T02:05:45.448Z,1.43
2019-01-27T02:08:12.823Z,2.00
2019-01-27T02:10:39.762Z,1.83
2019-01-27T02:13:06.990Z,1.80
2019-01-27T02:16:05.905Z,1.50
2019-01-27T02:18:34.190Z,1.60
2019-01-27T02:21:01.007Z,1.53
2019-01-27T02:23:27.931Z,1.50
2019-01-27T02:25:54.796Z,2.00
2019-01-27T02:28:21.560Z,1.83
2019-01-27T02:30:48.409Z,1.70
2019-01-27T02:33:15.795Z,1.57
2019-01-27T02:35:42.674Z,2.00
2019-01-27T02:38:09.416Z,1.30
2019-01-27T02:40:36.229Z,1.57
2019-01-27T02:43:03.022Z,1.67
2019-01-27T02:45:29.872Z,1.67
2019-01-27T02:47:58.015Z,1.63
2019-01-27T02:50:25.082Z,1.60
2019-01-27T02:52:52.359Z,1.70
2019-01-27T02:55:19.292Z,2.03
2019-01-27T02:57:46.182Z,1.80
2019-01-27T03:00:13.284Z,1.70
2019-01-27T03:02:40.198Z,1.63
2019-01-27T03:05:18.894Z,1.70
2019-01-27T03:07:45.747Z,1.50
2019-01-27T03:10:13.252Z,1.20
2019-01-27T03:12:40.775Z,1.30
2019-01-27T03:15:08.440Z,2.03
2019-01-27T03:17:35.224Z,1.50
2019-01-27T03:20:07.757Z,1.73
2019-01-27T03:22:34.544Z,1.73
2019-01-27T03:25:01.488Z,1.50
2019-01-27T03:27:28.242Z,1.77
2019-01-27T03:29:56.823Z,1.63
2019-01-27T03:32:23.556Z,1.33
2019-01-27T03:34:50.344Z,1.30
2019-01-27T03:37:17.252Z,1.43
2019-01-27T03:39:44.126Z,1.40
2019-01-27T03:42:11.060Z,1.40
2019-01-27T03:44:37.860Z,1.30
2019-01-27T03:47:04.594Z,1.40
2019-01-27T03:49:31.464Z,1.20
2019-01-27T03:51:58.256Z,1.33
2019-01-27T03:54:25.115Z,1.33
2019-01-27T03:56:51.964Z,1.30
2019-01-27T03:59:18.824Z,1.30
2019-01-27T04:01:45.731Z,1.60
2019-01-27T04:04:12.501Z,1.00
2019-01-27T04:06:39.626Z,1.20
2019-01-27T04:09:08.972Z,0.87
2019-01-27T04:11:37.715Z,1.40
2019-01-27T04:14:04.660Z,1.43
2019-01-27T04:16:31.930Z,1.40
2019-01-27T04:18:58.688Z,1.33
2019-01-27T04:21:25.568Z,1.37
2019-01-27T04:23:52.371Z,0.80
2019-01-27T04:26:20.049Z,1.30
2019-01-27T04:28:46.911Z,1.00
2019-01-27T04:31:14.055Z,1.10
2019-01-27T04:33:40.888Z,1.67
2019-01-27T04:36:07.761Z,1.40
2019-01-27T04:38:34.624Z,1.30
2019-01-27T04:41:01.727Z,1.53
2019-01-27T04:43:29.137Z,1.47
2019-01-27T04:45:55.914Z,1.47
2019-01-27T04:48:22.811Z,1.40
2019-01-27T04:50:49.574Z,1.70
2019-01-27T04:53:16.820Z,1.30
2019-01-27T04:55:44.305Z,1.13
2019-01-27T04:58:11.180Z,1.10
2019-01-27T05:00:37.961Z,1.17
2019-01-27T05:03:27.303Z,1.20
2019-01-27T05:05:54.139Z,1.20
2019-01-27T05:08:21.010Z,1.30
2019-01-27T05:10:47.810Z,1.27
2019-01-27T05:13:14.606Z,1.20
2019-01-27T05:15:41.533Z,1.40
2019-01-27T05:18:08.377Z,1.10
2019-01-27T05:20:35.135Z,1.40
2019-01-27T05:23:02.035Z,1.10
2019-01-27T05:25:29.185Z,1.50
2019-01-27T05:27:56.371Z,1.20
2019-01-27T05:30:23.175Z,1.17
2019-01-27T05:32:53.072Z,1.10
2019-01-27T05:35:19.872Z,1.20
2019-01-27T05:37:46.609Z,1.30
2019-01-27T05:40:14.121Z,1.10
2019-01-27T05:42:40.931Z,1.50
2019-01-27T05:45:09.652Z,1.33
2019-01-27T05:47:36.476Z,1.60
2019-01-27T05:50:04.749Z,1.40
2019-01-27T05:52:31.620Z,1.23
2019-01-27T05:54:58.443Z,1.10
2019-01-27T05:57:25.179Z,1.50
2019-01-27T05:59:52.479Z,1.00
2019-01-27T06:02:20.481Z,1.00
2019-01-27T06:04:47.385Z,1.10
2019-01-27T06:07:14.231Z,1.10
2019-01-27T06:09:41.177Z,1.20
2019-01-27T06:12:08.030Z,0.83
2019-01-27T06:14:34.868Z,1.10
2019-01-27T06:17:01.683Z,1.10
2019-01-27T06:19:28.839Z,1.00
2019-01-27T06:21:55.597Z,1.10
2019-01-27T06:24:22.515Z,1.00
2019-01-27T06:26:49.324Z,1.10
2019-01-27T06:29:16.195Z,1.10
2019-01-27T06:31:45.947Z,1.27
2019-01-27T06:34:15.162Z,1.10
2019-01-27T06:36:42.005Z,1.20
2019-01-27T06:39:12.259Z,1.40
2019-01-27T06:41:38.992Z,1.33
2019-01-27T06:44:05.976Z,1.13
2019-01-27T06:46:32.933Z,1.40
2019-01-27T06:48:59.758Z,1.30
2019-01-27T06:51:26.529Z,1.30
2019-01-27T06:53:53.312Z,1.20
2019-01-27T06:56:20.486Z,1.50
2019-01-27T06:59:05.883Z,1.47
2019-01-27T07:01:38.547Z,1.23
2019-01-27T07:04:13.615Z,1.40
2019-01-27T07:06:48.659Z,1.03
2019-01-27T07:09:32.981Z,1.40
2019-01-27T07:12:17.840Z,1.40
2019-01-27T07:14:54.029Z,1.30
2019-01-27T07:17:55.191Z,1.27
2019-01-27T07:20:30.408Z,1.20
2019-01-27T07:23:15.169Z,1.47
2019-01-27T07:26:00.844Z,1.47
2019-01-27T07:28:42.451Z,1.20
2019-01-27T07:31:35.337Z,1.33
2019-01-27T07:34:15.864Z,1.20
2019-01-27T07:37:00.807Z,1.40
2019-01-27T07:39:45.755Z,1.10
2019-01-27T07:42:38.172Z,1.27
2019-01-27T07:45:19.928Z,0.87
2019-01-27T07:48:18.405Z,1.40
2019-01-27T07:51:03.431Z,1.07
2019-01-27T07:53:48.561Z,0.73
2019-01-27T07:56:33.830Z,1.10
2019-01-27T07:59:26.068Z,1.03
2019-01-27T08:02:15.806Z,1.20
2019-01-27T08:05:14.072Z,0.93
2019-01-27T08:08:09.297Z,1.27
2019-01-27T08:10:58.691Z,1.27
2019-01-27T08:13:43.316Z,1.00
2019-01-27T08:16:35.529Z,1.00
2019-01-27T08:19:11.116Z,1.03
2019-01-27T08:22:03.790Z,0.90
2019-01-27T08:25:05.280Z,0.93
2019-01-27T08:27:50.072Z,1.20
2019-01-27T08:30:32.112Z,1.10
2019-01-27T08:33:24.413Z,1.07
2019-01-27T08:36:01.058Z,1.30
2019-01-27T08:38:46.069Z,1.07
2019-01-27T08:41:50.876Z,1.20
2019-01-27T08:44:25.638Z,1.33
2019-01-27T08:46:55.727Z,1.20
2019-01-27T08:49:22.587Z,1.30
2019-01-27T08:51:49.597Z,1.20
2019-01-27T08:54:16.354Z,1.33
2019-01-27T08:56:43.275Z,1.30
2019-01-27T08:59:10.057Z,1.60
2019-01-27T09:01:52.661Z,1.40
2019-01-27T09:04:39.180Z,1.17
2019-01-27T09:07:31.605Z,1.20
2019-01-27T09:10:27.278Z,1.50
2019-01-27T09:13:19.962Z,1.60
2019-01-27T09:16:04.860Z,1.33
2019-01-27T09:18:41.790Z,1.40
2019-01-27T09:21:14.499Z,1.20
2019-01-27T09:23:59.816Z,1.10
2019-01-27T09:26:41.722Z,1.47
2019-01-27T09:29:19.284Z,1.23
2019-01-27T09:32:17.865Z,0.73
2019-01-27T09:35:00.509Z,1.07
2019-01-27T09:37:55.990Z,1.10
2019-01-27T09:40:31.568Z,1.30
2019-01-27T09:43:18.064Z,1.20
2019-01-27T09:46:05.158Z,1.27
2019-01-27T09:48:51.529Z,1.50
2019-01-27T09:51:22.925Z,1.10
2019-01-27T09:54:21.373Z,1.03
2019-01-27T09:57:09.878Z,1.53
2019-01-27T09:59:47.867Z,1.20
2019-01-27T10:02:43.322Z,1.17
2019-01-27T10:05:30.251Z,1.20
2019-01-27T10:08:22.920Z,1.30
2019-01-27T10:11:01.561Z,1.23
2019-01-27T10:13:35.838Z,1.20
2019-01-27T10:16:34.041Z,1.27
2019-01-27T10:19:18.984Z,1.10
2019-01-27T10:22:03.966Z,0.90
2019-01-27T10:24:39.726Z,1.00
2019-01-27T10:27:24.708Z,1.10
2019-01-27T10:30:11.110Z,1.10
2019-01-27T10:32:51.040Z,1.17
2019-01-27T10:35:43.488Z,0.90
2019-01-27T10:38:19.132Z,1.20
2019-01-27T10:40:58.344Z,1.03
2019-01-27T10:43:43.417Z,0.83
2019-01-27T10:46:33.039Z,1.10
2019-01-27T10:49:13.254Z,1.17
2019-01-27T10:52:05.772Z,1.00
2019-01-27T10:54:53.335Z,1.10
2019-01-27T10:57:42.477Z,0.73
2019-01-27T11:00:24.877Z,1.30
2019-01-27T11:03:01.281Z,0.90
2019-01-27T11:05:50.213Z,0.97
2019-01-27T11:08:44.924Z,1.00
2019-01-27T11:11:25.364Z,1.43
2019-01-27T11:14:23.727Z,0.87
2019-01-27T11:17:10.448Z,1.00
2019-01-27T11:19:43.354Z,1.43
2019-01-27T11:22:45.021Z,1.10
2019-01-27T11:25:30.322Z,1.00
2019-01-27T11:28:15.248Z,1.33
2019-01-27T11:31:02.380Z,1.10
2019-01-27T11:34:03.927Z,1.10
2019-01-27T11:36:38.840Z,1.40
2019-01-27T11:39:41.866Z,1.10
2019-01-27T11:42:25.016Z,1.20
2019-01-27T11:45:10.270Z,1.33
2019-01-27T11:48:06.248Z,1.20
2019-01-27T11:50:40.592Z,1.23
2019-01-27T11:53:08.476Z,1.57
2019-01-27T11:55:35.190Z,1.37
2019-01-27T11:58:04.481Z,1.27
2019-01-27T12:00:36.833Z,1.00
2019-01-27T12:03:03.747Z,1.10
2019-01-27T12:05:30.683Z,1.80
2019-01-27T12:07:57.481Z,1.10
2019-01-27T12:10:24.599Z,1.20
2019-01-27T12:12:52.150Z,1.13
2019-01-27T12:15:19.455Z,0.90
2019-01-27T12:17:46.559Z,1.30
2019-01-27T12:20:13.422Z,1.07
2019-01-27T12:22:40.554Z,1.10
2019-01-27T12:25:08.747Z,1.20
2019-01-27T12:27:35.550Z,1.50
2019-01-27T12:30:03.001Z,1.07
2019-01-27T12:32:29.959Z,1.20
2019-01-27T12:34:56.886Z,1.17
2019-01-27T12:37:23.675Z,1.03
2019-01-27T12:39:50.775Z,1.30
2019-01-27T12:42:17.551Z,1.23
2019-01-27T12:44:44.591Z,1.20
2019-01-27T12:47:11.567Z,1.30
2019-01-27T12:49:38.702Z,0.90
2019-01-27T12:52:05.575Z,1.50
2019-01-27T12:54:32.325Z,1.03
2019-01-27T12:57:01.150Z,1.30
2019-01-27T12:59:28.310Z,1.20
2019-01-27T13:01:55.221Z,1.30
2019-01-27T13:04:22.397Z,1.60
2019-01-27T13:06:52.105Z,1.30
2019-01-27T13:09:18.838Z,1.50
2019-01-27T13:11:48.019Z,1.30
2019-01-27T13:14:15.153Z,1.20
2019-01-27T13:16:42.159Z,1.03
2019-01-27T13:19:09.062Z,1.00
2019-01-27T13:21:36.039Z,1.07
2019-01-27T13:24:03.378Z,1.30
2019-01-27T13:26:30.165Z,1.37
2019-01-27T13:28:57.132Z,1.10
2019-01-27T13:31:24.213Z,1.20
2019-01-27T13:33:51.138Z,6.30
2019-01-27T13:36:18.335Z,2.00
2019-01-27T13:38:51.033Z,1.20
2019-01-27T13:41:14.118Z,1.30
2019-01-27T13:43:41.002Z,0.80
2019-01-27T13:46:07.959Z,1.57
2019-01-27T13:48:34.870Z,1.30
2019-01-27T13:51:02.002Z,1.37
2019-01-27T13:53:28.889Z,1.60
2019-01-27T13:55:55.719Z,1.83
2019-01-27T13:58:22.525Z,1.20
2019-01-27T14:00:49.320Z,1.50
2019-01-27T14:03:17.171Z,1.50
2019-01-27T14:05:44.009Z,1.47
2019-01-27T14:08:10.747Z,1.30
2019-01-27T14:10:37.679Z,1.50
2019-01-27T14:13:04.511Z,1.07
2019-01-27T14:15:32.339Z,1.10
2019-01-27T14:17:59.183Z,1.10
2019-01-27T14:20:26.086Z,1.00
2019-01-27T14:22:53.065Z,1.20
2019-01-27T14:25:21.506Z,1.40
2019-01-27T14:27:48.265Z,1.40
2019-01-27T14:30:17.771Z,1.70
2019-01-27T14:32:44.727Z,1.00
2019-01-27T14:35:12.893Z,1.13
2019-01-27T14:37:40.046Z,1.20
2019-01-27T14:40:09.293Z,1.00
2019-01-27T14:42:36.151Z,0.90
2019-01-27T14:45:05.351Z,1.40
2019-01-27T14:47:32.191Z,0.90
2019-01-27T14:49:59.119Z,1.13
2019-01-27T14:52:26.353Z,1.30
2019-01-27T14:54:53.109Z,1.40
2019-01-27T14:57:22.519Z,1.33
2019-01-27T14:59:49.533Z,0.90
2019-01-27T15:02:16.685Z,1.00
2019-01-27T15:04:43.478Z,0.90
2019-01-27T15:07:10.216Z,1.00
2019-01-27T15:09:37.115Z,1.20
2019-01-27T15:12:06.327Z,1.47
2019-01-27T15:14:33.219Z,1.47
2019-01-27T15:17:00.175Z,1.07
2019-01-27T15:19:27.144Z,0.90
2019-01-27T15:21:54.593Z,1.30
2019-01-27T15:24:21.440Z,1.20
2019-01-27T15:26:48.332Z,1.40
2019-01-27T15:29:15.226Z,1.63
2019-01-27T15:31:42.573Z,1.07
2019-01-27T15:34:09.333Z,1.43
2019-01-27T15:36:36.297Z,1.00
2019-01-27T15:39:06.542Z,1.47
2019-01-27T15:41:33.953Z,1.10
2019-01-27T15:44:00.746Z,1.40
2019-01-27T15:46:27.584Z,1.40
2019-01-27T15:48:54.491Z,1.30
2019-01-27T15:51:21.287Z,1.20
2019-01-27T15:53:48.124Z,1.17
2019-01-27T15:56:15.024Z,1.10
2019-01-27T15:58:41.818Z,1.30
2019-01-27T16:01:08.789Z,1.30
2019-01-27T16:03:41.015Z,1.40
2019-01-27T16:06:10.920Z,1.67
2019-01-27T16:08:37.827Z,1.30
2019-01-27T16:11:04.595Z,1.63
2019-01-27T16:13:31.518Z,1.40
2019-01-27T16:15:59.588Z,1.13
2019-01-27T16:18:26.379Z,1.57
2019-01-27T16:20:53.277Z,1.50
2019-01-27T16:23:39.668Z,1.50
2019-01-27T16:26:08.597Z,1.30
2019-01-27T16:28:35.355Z,0.90
2019-01-27T16:31:22.088Z,1.40
2019-01-27T16:34:09.116Z,1.30
2019-01-27T16:36:36.421Z,2.00
2019-01-27T16:39:07.739Z,1.20
2019-01-27T16:41:34.881Z,1.20
2019-01-27T16:44:01.715Z,1.00
2019-01-27T16:46:28.505Z,1.20
2019-01-27T16:48:55.364Z,1.20
2019-01-27T16:51:22.292Z,1.50
2019-01-27T16:53:49.087Z,1.50
2019-01-27T16:56:15.777Z,2.30
2019-01-27T16:58:42.540Z,1.47
2019-01-27T17:01:09.466Z,1.20
2019-01-27T17:03:36.322Z,1.57
2019-01-27T17:06:03.322Z,1.40
2019-01-27T17:08:32.139Z,1.60
2019-01-27T17:10:59.117Z,1.63
2019-01-27T17:13:29.992Z,1.60
2019-01-27T17:15:58.750Z,1.67
2019-01-27T17:18:25.676Z,1.20
2019-01-27T17:20:52.705Z,1.60
2019-01-27T17:23:19.870Z,1.50
2019-01-27T17:25:46.872Z,1.57
2019-01-27T17:28:13.940Z,1.30
2019-01-27T17:30:41.161Z,1.27
2019-01-27T17:33:10.171Z,1.57
2019-01-27T17:35:41.715Z,1.30
2019-01-27T17:38:11.345Z,1.20
2019-01-27T17:40:38.239Z,1.03
2019-01-27T17:43:05.212Z,1.10
2019-01-27T17:45:31.982Z,1.17
2019-01-27T17:47:59.097Z,1.30
2019-01-27T17:50:25.896Z,1.10
2019-01-27T17:52:53.338Z,1.30
2019-01-27T17:55:42.273Z,1.20
2019-01-27T17:58:33.994Z,1.10
2019-01-27T18:01:35.462Z,0.90
2019-01-27T18:04:24.558Z,0.80
2019-01-27T18:07:16.704Z,1.37
2019-01-27T18:09:58.407Z,1.40
2019-01-27T18:12:34.056Z,1.30
2019-01-27T18:15:00.966Z,1.50
2019-01-27T18:17:27.759Z,1.50
2019-01-27T18:19:56.344Z,1.00
2019-01-27T18:22:23.144Z,1.13
2019-01-27T18:24:49.907Z,1.20
2019-01-27T18:27:16.699Z,1.23
2019-01-27T18:29:43.519Z,0.90
2019-01-27T18:32:13.113Z,0.50
2019-01-27T18:34:40.907Z,0.70
2019-01-27T18:37:07.669Z,0.90
2019-01-27T18:39:34.445Z,1.07
2019-01-27T18:42:01.745Z,1.20
2019-01-27T18:44:28.870Z,0.90
2019-01-27T18:46:55.737Z,0.90
2019-01-27T18:49:22.559Z,1.10
2019-01-27T18:51:49.411Z,0.80
2019-01-27T18:54:35.934Z,0.90
2019-01-27T18:57:25.347Z,0.80
2019-01-27T19:00:10.244Z,0.70
2019-01-27T19:02:56.647Z,0.70
2019-01-27T19:05:29.663Z,0.60
2019-01-27T19:08:14.700Z,0.90
2019-01-27T19:11:02.343Z,0.80
2019-01-27T19:13:45.805Z,1.00
2019-01-27T19:16:41.163Z,0.83
2019-01-27T19:19:23.996Z,0.80
2019-01-27T19:22:06.904Z,0.60
2019-01-27T19:24:59.144Z,1.60
2019-01-27T19:27:53.291Z,1.03
2019-01-27T19:30:33.889Z,0.70
2019-01-27T19:33:09.322Z,0.90
2019-01-27T19:35:56.675Z,0.70
2019-01-27T19:38:31.328Z,1.20
2019-01-27T19:44:18.309Z,1.03
2019-01-27T19:46:56.457Z,0.80
2019-01-27T19:50:00.805Z,0.90
2019-01-27T19:52:59.599Z,1.20
2019-01-27T19:55:36.848Z,1.00
2019-01-27T19:58:23.526Z,1.40
2019-01-27T20:01:00.129Z,1.33
2019-01-27T20:03:48.775Z,1.30
2019-01-27T20:06:33.700Z,1.17
2019-01-27T20:09:29.050Z,1.10
2019-01-27T20:12:24.614Z,0.90
2019-01-27T20:15:15.777Z,1.60
2019-01-27T20:17:54.997Z,1.10
2019-01-27T20:20:44.553Z,1.00
2019-01-27T20:23:34.080Z,1.10
2019-01-27T20:26:20.562Z,1.20
2019-01-27T20:29:10.034Z,1.13
2019-01-27T20:31:49.963Z,1.33
2019-01-27T20:34:51.328Z,1.10
2019-01-27T20:37:32.200Z,1.20
2019-01-27T20:40:33.732Z,1.47
2019-01-27T20:43:19.457Z,1.30
2019-01-27T20:46:08.644Z,1.10
2019-01-27T20:49:01.170Z,0.97
2019-01-27T20:51:42.968Z,1.40
2019-01-27T20:54:25.658Z,1.50
2019-01-27T20:57:20.912Z,1.50
2019-01-27T21:00:04.330Z,1.60
2019-01-27T21:02:57.002Z,1.57
2019-01-27T21:05:49.569Z,1.80
2019-01-27T21:08:31.921Z,1.60
2019-01-27T21:11:09.338Z,1.63
2019-01-27T21:13:56.554Z,2.33
2019-01-27T21:16:38.908Z,2.50
2019-01-27T21:19:13.362Z,2.40
2019-01-27T21:21:40.342Z,2.53
2019-01-27T21:24:07.396Z,2.13
2019-01-27T21:26:34.681Z,2.10
2019-01-27T21:29:01.697Z,2.70
2019-01-27T21:31:29.032Z,2.87
2019-01-27T21:33:57.944Z,2.40
2019-01-27T21:36:24.838Z,2.73
2019-01-27T21:38:51.902Z,2.90
2019-01-27T21:41:18.762Z,2.93
2019-01-27T21:43:45.491Z,3.00
2019-01-27T21:46:12.685Z,2.57
2019-01-27T21:48:39.830Z,2.60
2019-01-27T21:51:06.785Z,2.93
2019-01-27T21:53:33.797Z,2.83
2019-01-27T21:56:00.758Z,3.33
2019-01-27T21:58:27.542Z,3.60
2019-01-27T22:00:54.919Z,3.57
2019-01-27T22:03:22.217Z,3.40
2019-01-27T22:05:49.150Z,3.60
2019-01-27T22:08:16.016Z,4.30
2019-01-27T22:10:42.968Z,4.10
2019-01-27T22:13:10.183Z,3.53
2019-01-27T22:15:37.498Z,4.17
2019-01-27T22:18:04.304Z,3.00
2019-01-27T22:20:31.569Z,3.43
2019-01-27T22:22:59.077Z,3.50
2019-01-27T22:25:26.282Z,3.50
2019-01-27T22:27:53.315Z,3.83
2019-01-27T22:30:20.192Z,3.50
2019-01-27T22:32:47.348Z,3.57
2019-01-27T22:35:14.530Z,4.05
2019-01-27T22:37:41.829Z,3.97
2019-01-27T22:40:09.403Z,3.73
2019-01-27T22:42:36.327Z,3.93
2019-01-27T22:45:04.708Z,4.07
2019-01-27T22:47:31.634Z,4.40
2019-01-27T22:49:58.388Z,4.00
2019-01-27T22:52:25.224Z,2.60
2019-01-27T22:54:51.961Z,3.40
2019-01-27T22:57:18.813Z,3.60
2019-01-27T22:59:47.930Z,3.90
2019-01-27T23:02:15.034Z,3.80
2019-01-27T23:04:42.092Z,3.00
2019-01-27T23:07:10.484Z,3.67
2019-01-27T23:09:37.506Z,3.50
2019-01-27T23:12:04.356Z,2.83
2019-01-27T23:14:31.510Z,3.30
2019-01-27T23:16:58.499Z,1.70
2019-01-27T23:19:25.293Z,1.90
2019-01-27T23:21:52.024Z,2.57
2019-01-27T23:24:18.872Z,2.87
2019-01-27T23:26:46.020Z,2.30
2019-01-27T23:29:15.715Z,2.77
2019-01-27T23:31:44.207Z,2.73
2019-01-27T23:34:11.681Z,2.83
2019-01-27T23:36:38.433Z,1.90
2019-01-27T23:39:07.917Z,2.70
2019-01-27T23:41:35.216Z,2.80
2019-01-27T23:44:02.117Z,2.93
2019-01-27T23:46:29.093Z,2.47
2019-01-27T23:48:55.968Z,2.17
2019-01-27T23:51:22.955Z,2.07
2019-01-27T23:53:49.744Z,2.37
2019-01-27T23:56:16.621Z,2.10
2019-01-27T23:58:46.431Z,2.40
